10:34
Airports
History
Links
Donate
Help keep this website running!
PayPal
Bitcoin
Information on this page is community maintained and may be outdated or inaccurate and is intended for reference only or PC simulator navigating.
Always use approved charts for navigating.
SNKF
Conselheiro Lafaiete
Conselheiro Lafaiete (SNKF)
Conselheiro Lafaiete, Minas Gerais, Brazil (36400)
(U)
Lat/Lng:20° 44' 19" S / 43° 47' 53" W
-20.738611 / -43.798056
Elevation:3478'ft 1060mMSL
ID / ICAO:SNKF
Runways:1
Longest:(03-21) 965.6m 3,168ft Asphalt
Distance To
Airport ID:
Nearby WeatherUpdated 05-25-17 09:00 GMT
Nearby weather at SBBQ, MAJOR BRIGADEIRO DOORGAL BORGES located 36.6 nautical miles from SNKF
Altimeter: 30.30
Visibility: 6.2 statute miles
Wind: 2 knots (VRB°)
Temp: 15°c 59°f
Humidity: 93.7%

METAR: SBBQ 250900Z VRB02KT 9999 BKN012 15/14 Q1026

(Powered by phpweather)
Runway 03 / 21
Dimensions:965.6 x 29.9m 3168' x 98'ft
Surface:Asphalt
Runway 03 [A]Runway 21 [B]
Heading:007°TH 187°TH
Lat:
Lng:
20° 44' 34.55"S
43° 47' 55.15"W
20° 44' 3.45"S
43° 47' 50.85"W
User Notes and Comments
Google Map
Nearby Airports
(C) MAJOR BRIGADEIRO DOORGAL BORGES 36.6 NM
SBBQ (WX) S 176°
(U) SAO JOAO DEL REI 36.6 NM
SNJR SW 229°
4 Fazenda Haras RPC 40.3 NM
SJQT NNW 348°
4 Passa Tempo 45.8 NM
SNPT W 277°
(U) CARLOS PRATES 58.7 NM
SBPR NNW 347°
(U) PONTE NOVA 61.5 NM
SNCZ ENE 67°
(U) Vicosa 61.8 NM
SNVC E 90°
VFR Chart
Flight Planning at SkyVector.com